sensor_id;sensor_type;location;lat;lon;timestamp;pressure;altitude;pressure_sealevel;temperature;humidity
70009;BME280;59542;37.950;-122.338;2022-07-29T00:01:01;101016.31;;;18.27;65.12
70009;BME280;59542;37.950;-122.338;2022-07-29T00:03:27;101016.41;;;18.37;64.41
70009;BME280;59542;37.950;-122.338;2022-07-29T00:05:53;101019.97;;;18.16;64.87
70009;BME280;59542;37.950;-122.338;2022-07-29T00:08:19;101024.44;;;18.27;64.23
70009;BME280;59542;37.950;-122.338;2022-07-29T00:10:46;101014.66;;;18.26;64.96
70009;BME280;59542;37.950;-122.338;2022-07-29T00:13:12;101019.50;;;18.46;63.99
70009;BME280;59542;37.950;-122.338;2022-07-29T00:15:39;101017.94;;;18.28;64.43
70009;BME280;59542;37.950;-122.338;2022-07-29T00:18:05;101017.13;;;18.06;64.86
70009;BME280;59542;37.950;-122.338;2022-07-29T00:20:31;101018.06;;;17.94;65.70
70009;BME280;59542;37.950;-122.338;2022-07-29T00:22:57;101031.06;;;17.76;66.45
70009;BME280;59542;37.950;-122.338;2022-07-29T00:25:24;101019.56;;;17.68;66.66
70009;BME280;59542;37.950;-122.338;2022-07-29T00:27:50;101010.88;;;17.83;66.74
70009;BME280;59542;37.950;-122.338;2022-07-29T00:30:18;101004.19;;;17.91;66.15
70009;BME280;59542;37.950;-122.338;2022-07-29T00:32:44;101011.34;;;17.63;66.62
70009;BME280;59542;37.950;-122.338;2022-07-29T00:35:10;101013.00;;;17.81;67.02
70009;BME280;59542;37.950;-122.338;2022-07-29T00:37:54;100999.66;;;17.97;66.04
70009;BME280;59542;37.950;-122.338;2022-07-29T00:40:21;100998.97;;;18.06;66.00
70009;BME280;59542;37.950;-122.338;2022-07-29T00:42:50;101010.50;;;17.97;65.89
70009;BME280;59542;37.950;-122.338;2022-07-29T00:45:17;101009.72;;;17.62;66.64
70009;BME280;59542;37.950;-122.338;2022-07-29T00:47:44;101007.69;;;17.36;67.95
70009;BME280;59542;37.950;-122.338;2022-07-29T00:50:13;101002.28;;;17.53;68.27
70009;BME280;59542;37.950;-122.338;2022-07-29T00:52:41;101004.69;;;17.32;68.67
70009;BME280;59542;37.950;-122.338;2022-07-29T00:55:10;101005.00;;;17.19;69.92
70009;BME280;59542;37.950;-122.338;2022-07-29T00:57:37;100994.34;;;17.29;69.69
70009;BME280;59542;37.950;-122.338;2022-07-29T01:00:06;101000.75;;;17.23;68.81
70009;BME280;59542;37.950;-122.338;2022-07-29T01:02:33;100992.78;;;17.33;68.98
70009;BME280;59542;37.950;-122.338;2022-07-29T01:04:59;100991.00;;;17.05;69.54
70009;BME280;59542;37.950;-122.338;2022-07-29T01:07:26;100988.94;;;17.12;69.41
70009;BME280;59542;37.950;-122.338;2022-07-29T01:09:55;100997.13;;;17.01;70.01
70009;BME280;59542;37.950;-122.338;2022-07-29T01:12:24;100993.34;;;16.85;70.70
70009;BME280;59542;37.950;-122.338;2022-07-29T01:14:52;100994.72;;;17.04;70.51
70009;BME280;59542;37.950;-122.338;2022-07-29T01:29:26;100988.41;;;16.82;70.98
70009;BME280;59542;37.950;-122.338;2022-07-29T01:31:58;100995.47;;;16.83;71.07
70009;BME280;59542;37.950;-122.338;2022-07-29T01:34:33;100998.28;;;16.88;70.71
70009;BME280;59542;37.950;-122.338;2022-07-29T01:39:52;100995.94;;;16.51;72.05
70009;BME280;59542;37.950;-122.338;2022-07-29T01:42:36;100997.00;;;16.50;72.25
70009;BME280;59542;37.950;-122.338;2022-07-29T01:45:23;100999.66;;;16.33;72.93
70009;BME280;59542;37.950;-122.338;2022-07-29T01:50:52;100988.44;;;16.42;73.02
70009;BME280;59542;37.950;-122.338;2022-07-29T01:53:45;100992.69;;;16.37;72.85
70009;BME280;59542;37.950;-122.338;2022-07-29T01:56:13;100993.44;;;16.33;73.19
70009;BME280;59542;37.950;-122.338;2022-07-29T01:58:43;100997.06;;;16.39;73.15
70009;BME280;59542;37.950;-122.338;2022-07-29T02:01:12;100986.72;;;15.95;74.30
70009;BME280;59542;37.950;-122.338;2022-07-29T02:03:43;101005.13;;;15.98;74.49
70009;BME280;59542;37.950;-122.338;2022-07-29T02:06:10;101002.91;;;15.95;74.94
70009;BME280;59542;37.950;-122.338;2022-07-29T02:08:38;100998.78;;;15.93;75.58
70009;BME280;59542;37.950;-122.338;2022-07-29T02:11:05;101000.91;;;16.02;74.70
70009;BME280;59542;37.950;-122.338;2022-07-29T02:13:34;101005.63;;;15.95;75.12
70009;BME280;59542;37.950;-122.338;2022-07-29T02:16:04;101009.41;;;15.82;75.87
70009;BME280;59542;37.950;-122.338;2022-07-29T02:18:31;100995.69;;;15.72;76.28
70009;BME280;59542;37.950;-122.338;2022-07-29T02:20:59;100998.59;;;15.71;76.89
70009;BME280;59542;37.950;-122.338;2022-07-29T02:23:27;101006.09;;;15.69;76.75
70009;BME280;59542;37.950;-122.338;2022-07-29T02:25:56;101003.28;;;15.64;76.66
70009;BME280;59542;37.950;-122.338;2022-07-29T02:28:25;100994.34;;;15.51;77.55
70009;BME280;59542;37.950;-122.338;2022-07-29T02:30:54;101004.78;;;15.48;77.62
70009;BME280;59542;37.950;-122.338;2022-07-29T02:33:21;101014.09;;;15.64;77.42
70009;BME280;59542;37.950;-122.338;2022-07-29T02:35:50;101012.81;;;15.66;76.99
70009;BME280;59542;37.950;-122.338;2022-07-29T02:38:17;101017.25;;;15.61;77.20
70009;BME280;59542;37.950;-122.338;2022-07-29T02:41:05;101009.50;;;15.64;77.30
70009;BME280;59542;37.950;-122.338;2022-07-29T02:43:34;101019.00;;;15.55;77.47
70009;BME280;59542;37.950;-122.338;2022-07-29T02:46:05;101013.56;;;15.43;77.91
70009;BME280;59542;37.950;-122.338;2022-07-29T02:48:40;101014.38;;;15.32;78.64
70009;BME280;59542;37.950;-122.338;2022-07-29T02:51:13;101015.31;;;15.38;78.70
70009;BME280;59542;37.950;-122.338;2022-07-29T02:53:49;101011.00;;;15.37;78.39
70009;BME280;59542;37.950;-122.338;2022-07-29T02:56:20;101013.34;;;15.33;78.94
70009;BME280;59542;37.950;-122.338;2022-07-29T02:58:59;101015.69;;;15.41;78.53
70009;BME280;59542;37.950;-122.338;2022-07-29T03:01:31;101007.47;;;15.36;78.95
70009;BME280;59542;37.950;-122.338;2022-07-29T03:04:00;101017.44;;;15.47;78.41
70009;BME280;59542;37.950;-122.338;2022-07-29T03:06:28;101026.97;;;15.50;78.23
70009;BME280;59542;37.950;-122.338;2022-07-29T03:08:55;101024.47;;;15.37;79.04
70009;BME280;59542;37.950;-122.338;2022-07-29T03:11:23;101027.41;;;15.35;78.54
70009;BME280;59542;37.950;-122.338;2022-07-29T03:13:50;101027.84;;;15.20;79.26
70009;BME280;59542;37.950;-122.338;2022-07-29T03:16:19;101037.44;;;15.04;80.23
70009;BME280;59542;37.950;-122.338;2022-07-29T03:18:46;101030.06;;;15.00;80.91
70009;BME280;59542;37.950;-122.338;2022-07-29T03:21:13;101036.66;;;15.16;80.07
70009;BME280;59542;37.950;-122.338;2022-07-29T03:23:43;101037.44;;;15.04;80.58
70009;BME280;59542;37.950;-122.338;2022-07-29T03:26:11;101035.44;;;15.00;80.62
70009;BME280;59542;37.950;-122.338;2022-07-29T03:28:37;101035.78;;;15.03;80.46
70009;BME280;59542;37.950;-122.338;2022-07-29T03:31:04;101034.03;;;15.09;80.06
70009;BME280;59542;37.950;-122.338;2022-07-29T03:33:30;101031.84;;;15.06;80.42
70009;BME280;59542;37.950;-122.338;2022-07-29T03:35:56;101031.47;;;15.02;80.41
70009;BME280;59542;37.950;-122.338;2022-07-29T03:38:25;101025.50;;;15.00;80.53
70009;BME280;59542;37.950;-122.338;2022-07-29T03:41:00;101035.09;;;15.08;79.93
70009;BME280;59542;37.950;-122.338;2022-07-29T03:43:31;101028.50;;;14.92;80.46
70009;BME280;59542;37.950;-122.338;2022-07-29T03:46:00;101028.50;;;14.92;80.77
70009;BME280;59542;37.950;-122.338;2022-07-29T03:48:26;101033.78;;;14.99;80.85
70009;BME280;59542;37.950;-122.338;2022-07-29T03:50:55;101038.22;;;14.93;81.29
70009;BME280;59542;37.950;-122.338;2022-07-29T03:53:22;101032.72;;;14.88;81.58
70009;BME280;59542;37.950;-122.338;2022-07-29T03:55:52;101036.59;;;14.92;81.51
70009;BME280;59542;37.950;-122.338;2022-07-29T03:58:19;101029.75;;;14.78;81.66
70009;BME280;59542;37.950;-122.338;2022-07-29T04:00:47;101033.16;;;14.85;81.08
70009;BME280;59542;37.950;-122.338;2022-07-29T04:03:14;101033.50;;;14.77;81.06
70009;BME280;59542;37.950;-122.338;2022-07-29T04:05:40;101035.88;;;14.85;80.70
70009;BME280;59542;37.950;-122.338;2022-07-29T04:08:06;101040.88;;;14.82;80.92
70009;BME280;59542;37.950;-122.338;2022-07-29T04:10:33;101041.59;;;14.77;81.10
70009;BME280;59542;37.950;-122.338;2022-07-29T04:12:59;101036.06;;;14.72;81.43
70009;BME280;59542;37.950;-122.338;2022-07-29T04:15:26;101039.34;;;14.74;81.36
70009;BME280;59542;37.950;-122.338;2022-07-29T04:17:54;101046.84;;;14.72;81.46
70009;BME280;59542;37.950;-122.338;2022-07-29T04:20:21;101038.75;;;14.72;81.06
70009;BME280;59542;37.950;-122.338;2022-07-29T04:22:47;101040.75;;;14.76;80.93
70009;BME280;59542;37.950;-122.338;2022-07-29T04:25:13;101044.19;;;14.84;81.22
70009;BME280;59542;37.950;-122.338;2022-07-29T04:27:39;101046.66;;;14.85;81.40
70009;BME280;59542;37.950;-122.338;2022-07-29T04:30:25;101050.84;;;14.81;81.67
70009;BME280;59542;37.950;-122.338;2022-07-29T04:32:52;101053.25;;;14.71;82.01
70009;BME280;59542;37.950;-122.338;2022-07-29T04:35:21;101046.38;;;14.75;82.04
70009;BME280;59542;37.950;-122.338;2022-07-29T04:37:47;101055.41;;;14.81;81.78
70009;BME280;59542;37.950;-122.338;2022-07-29T04:40:14;101059.41;;;14.78;81.90
70009;BME280;59542;37.950;-122.338;2022-07-29T04:42:40;101066.72;;;14.89;81.75
70009;BME280;59542;37.950;-122.338;2022-07-29T04:45:07;101063.16;;;14.77;82.05
70009;BME280;59542;37.950;-122.338;2022-07-29T04:47:33;101066.69;;;14.59;83.27
70009;BME280;59542;37.950;-122.338;2022-07-29T04:49:59;101066.28;;;14.74;82.65
70009;BME280;59542;37.950;-122.338;2022-07-29T04:52:26;101068.16;;;14.73;82.72
70009;BME280;59542;37.950;-122.338;2022-07-29T04:54:52;101068.94;;;14.62;82.72
70009;BME280;59542;37.950;-122.338;2022-07-29T04:57:18;101069.50;;;14.64;82.69
70009;BME280;59542;37.950;-122.338;2022-07-29T04:59:44;101069.75;;;14.63;82.71
70009;BME280;59542;37.950;-122.338;2022-07-29T05:02:11;101069.91;;;14.68;82.60
70009;BME280;59542;37.950;-122.338;2022-07-29T05:04:37;101078.66;;;14.63;82.96
70009;BME280;59542;37.950;-122.338;2022-07-29T05:07:03;101084.56;;;14.53;83.50
70009;BME280;59542;37.950;-122.338;2022-07-29T05:09:29;101083.81;;;14.65;83.55
70009;BME280;59542;37.950;-122.338;2022-07-29T05:11:57;101076.91;;;14.69;82.86
70009;BME280;59542;37.950;-122.338;2022-07-29T05:14:24;101088.16;;;14.66;82.60
70009;BME280;59542;37.950;-122.338;2022-07-29T05:16:50;101087.41;;;14.59;83.71
70009;BME280;59542;37.950;-122.338;2022-07-29T05:19:17;101070.50;;;14.51;84.12
70009;BME280;59542;37.950;-122.338;2022-07-29T05:21:44;101083.00;;;14.64;83.34
70009;BME280;59542;37.950;-122.338;2022-07-29T05:24:10;101082.69;;;14.54;84.44
70009;BME280;59542;37.950;-122.338;2022-07-29T05:26:37;101080.47;;;14.51;84.32
70009;BME280;59542;37.950;-122.338;2022-07-29T05:29:03;101089.00;;;14.48;85.14
70009;BME280;59542;37.950;-122.338;2022-07-29T05:31:29;101082.69;;;14.54;84.87
70009;BME280;59542;37.950;-122.338;2022-07-29T05:33:55;101088.78;;;14.49;85.01
70009;BME280;59542;37.950;-122.338;2022-07-29T05:36:21;101082.50;;;14.56;85.28
70009;BME280;59542;37.950;-122.338;2022-07-29T05:38:48;101081.97;;;14.47;85.84
70009;BME280;59542;37.950;-122.338;2022-07-29T05:41:14;101087.13;;;14.48;86.13
70009;BME280;59542;37.950;-122.338;2022-07-29T05:43:40;101081.06;;;14.53;85.88
70009;BME280;59542;37.950;-122.338;2022-07-29T05:46:06;101077.16;;;14.49;85.90
70009;BME280;59542;37.950;-122.338;2022-07-29T05:48:32;101072.53;;;14.56;85.15
70009;BME280;59542;37.950;-122.338;2022-07-29T05:50:59;101077.53;;;14.52;85.24
70009;BME280;59542;37.950;-122.338;2022-07-29T05:53:25;101070.84;;;14.37;86.06
70009;BME280;59542;37.950;-122.338;2022-07-29T05:55:51;101063.94;;;14.47;85.60
70009;BME280;59542;37.950;-122.338;2022-07-29T05:58:17;101071.38;;;14.45;85.70
70009;BME280;59542;37.950;-122.338;2022-07-29T06:00:44;101076.56;;;14.47;85.88
70009;BME280;59542;37.950;-122.338;2022-07-29T06:03:10;101090.53;;;14.37;86.41
70009;BME280;59542;37.950;-122.338;2022-07-29T06:05:37;101089.13;;;14.53;85.80
70009;BME280;59542;37.950;-122.338;2022-07-29T06:08:03;101089.53;;;14.57;85.56
70009;BME280;59542;37.950;-122.338;2022-07-29T06:10:35;101086.69;;;14.51;85.57
70009;BME280;59542;37.950;-122.338;2022-07-29T06:13:01;101075.56;;;14.60;84.95
70009;BME280;59542;37.950;-122.338;2022-07-29T06:15:28;101066.00;;;14.64;84.10
70009;BME280;59542;37.950;-122.338;2022-07-29T06:17:54;101070.00;;;14.61;84.27
70009;BME280;59542;37.950;-122.338;2022-07-29T06:20:21;101081.94;;;14.65;84.50
70009;BME280;59542;37.950;-122.338;2022-07-29T06:22:47;101082.44;;;14.74;84.17
70009;BME280;59542;37.950;-122.338;2022-07-29T06:25:13;101076.91;;;14.69;83.87
70009;BME280;59542;37.950;-122.338;2022-07-29T06:27:39;101076.25;;;14.73;83.98
70009;BME280;59542;37.950;-122.338;2022-07-29T06:30:06;101084.78;;;14.70;84.11
70009;BME280;59542;37.950;-122.338;2022-07-29T06:32:33;101083.94;;;14.70;84.41
70009;BME280;59542;37.950;-122.338;2022-07-29T06:34:59;101072.59;;;14.68;84.16
70009;BME280;59542;37.950;-122.338;2022-07-29T06:37:25;101076.47;;;14.72;84.26
70009;BME280;59542;37.950;-122.338;2022-07-29T06:39:52;101073.47;;;14.80;83.86
70009;BME280;59542;37.950;-122.338;2022-07-29T06:42:42;101080.13;;;14.77;83.75
70009;BME280;59542;37.950;-122.338;2022-07-29T06:45:10;101081.69;;;14.85;83.42
70009;BME280;59542;37.950;-122.338;2022-07-29T06:47:36;101083.41;;;14.79;83.80
70009;BME280;59542;37.950;-122.338;2022-07-29T06:50:04;101080.47;;;14.81;83.37
70009;BME280;59542;37.950;-122.338;2022-07-29T06:52:30;101084.81;;;14.82;82.62
70009;BME280;59542;37.950;-122.338;2022-07-29T06:54:56;101088.13;;;14.84;82.61
70009;BME280;59542;37.950;-122.338;2022-07-29T06:57:23;101089.09;;;14.90;82.33
70009;BME280;59542;37.950;-122.338;2022-07-29T06:59:49;101099.25;;;14.88;82.49
70009;BME280;59542;37.950;-122.338;2022-07-29T07:02:15;101091.81;;;14.71;83.47
70009;BME280;59542;37.950;-122.338;2022-07-29T07:04:41;101089.72;;;14.73;83.34
70009;BME280;59542;37.950;-122.338;2022-07-29T07:07:07;101095.94;;;14.74;82.91
70009;BME280;59542;37.950;-122.338;2022-07-29T07:09:33;101086.50;;;14.83;82.53
70009;BME280;59542;37.950;-122.338;2022-07-29T07:12:00;101090.16;;;14.70;82.82
70009;BME280;59542;37.950;-122.338;2022-07-29T07:14:26;101089.63;;;14.80;82.54
70009;BME280;59542;37.950;-122.338;2022-07-29T07:16:53;101093.22;;;14.74;82.73
70009;BME280;59542;37.950;-122.338;2022-07-29T07:19:19;101105.78;;;14.80;82.74
70009;BME280;59542;37.950;-122.338;2022-07-29T07:21:45;101104.28;;;14.84;82.14
70009;BME280;59542;37.950;-122.338;2022-07-29T07:24:12;101100.41;;;14.80;82.87
70009;BME280;59542;37.950;-122.338;2022-07-29T07:26:38;101105.22;;;14.78;83.08
70009;BME280;59542;37.950;-122.338;2022-07-29T07:29:05;101096.78;;;14.86;83.08
70009;BME280;59542;37.950;-122.338;2022-07-29T07:31:31;101096.13;;;14.91;82.26
70009;BME280;59542;37.950;-122.338;2022-07-29T07:33:58;101095.97;;;14.86;82.14
70009;BME280;59542;37.950;-122.338;2022-07-29T07:36:24;101103.97;;;14.92;81.39
70009;BME280;59542;37.950;-122.338;2022-07-29T07:38:50;101097.41;;;14.88;81.67
70009;BME280;59542;37.950;-122.338;2022-07-29T07:41:17;101100.72;;;15.02;81.63
70009;BME280;59542;37.950;-122.338;2022-07-29T07:43:43;101095.19;;;14.97;82.16
70009;BME280;59542;37.950;-122.338;2022-07-29T07:46:09;101104.53;;;15.13;81.65
70009;BME280;59542;37.950;-122.338;2022-07-29T07:48:35;101099.31;;;14.99;81.55
70009;BME280;59542;37.950;-122.338;2022-07-29T07:51:01;101093.84;;;15.06;81.39
70009;BME280;59542;37.950;-122.338;2022-07-29T07:53:28;101088.22;;;15.08;80.98
70009;BME280;59542;37.950;-122.338;2022-07-29T07:55:55;101093.16;;;15.11;80.97
70009;BME280;59542;37.950;-122.338;2022-07-29T07:58:21;101089.97;;;15.14;80.97
70009;BME280;59542;37.950;-122.338;2022-07-29T08:00:47;101095.25;;;15.09;80.69
70009;BME280;59542;37.950;-122.338;2022-07-29T08:03:14;101093.06;;;15.17;80.39
70009;BME280;59542;37.950;-122.338;2022-07-29T08:05:40;101077.81;;;15.23;80.00
70009;BME280;59542;37.950;-122.338;2022-07-29T08:08:07;101076.53;;;15.25;79.98
70009;BME280;59542;37.950;-122.338;2022-07-29T08:10:33;101077.19;;;15.09;80.67
70009;BME280;59542;37.950;-122.338;2022-07-29T08:13:19;101078.66;;;15.23;80.11
70009;BME280;59542;37.950;-122.338;2022-07-29T08:15:46;101070.88;;;15.15;80.58
70009;BME280;59542;37.950;-122.338;2022-07-29T08:18:13;101063.63;;;15.16;80.49
70009;BME280;59542;37.950;-122.338;2022-07-29T08:20:40;101065.00;;;15.07;81.36
70009;BME280;59542;37.950;-122.338;2022-07-29T08:23:07;101064.03;;;15.01;81.80
70009;BME280;59542;37.950;-122.338;2022-07-29T08:25:37;101063.94;;;15.08;81.22
70009;BME280;59542;37.950;-122.338;2022-07-29T08:28:07;101059.50;;;15.13;80.51
70009;BME280;59542;37.950;-122.338;2022-07-29T08:30:34;101058.91;;;14.99;80.94
70009;BME280;59542;37.950;-122.338;2022-07-29T08:33:00;101060.09;;;15.15;80.68
70009;BME280;59542;37.950;-122.338;2022-07-29T08:35:27;101063.16;;;15.19;80.69
70009;BME280;59542;37.950;-122.338;2022-07-29T08:37:54;101058.25;;;15.16;80.59
70009;BME280;59542;37.950;-122.338;2022-07-29T08:40:20;101056.91;;;15.07;81.25
70009;BME280;59542;37.950;-122.338;2022-07-29T08:42:49;101057.19;;;15.17;81.01
70009;BME280;59542;37.950;-122.338;2022-07-29T08:45:15;101059.59;;;15.07;81.09
70009;BME280;59542;37.950;-122.338;2022-07-29T08:47:44;101059.84;;;15.05;80.98
70009;BME280;59542;37.950;-122.338;2022-07-29T08:50:12;101064.16;;;14.94;81.48
70009;BME280;59542;37.950;-122.338;2022-07-29T08:52:40;101056.00;;;15.13;80.97
70009;BME280;59542;37.950;-122.338;2022-07-29T08:55:09;101053.28;;;15.13;80.72
70009;BME280;59542;37.950;-122.338;2022-07-29T08:57:36;101058.41;;;15.02;81.33
70009;BME280;59542;37.950;-122.338;2022-07-29T09:00:06;101055.97;;;15.01;81.27
70009;BME280;59542;37.950;-122.338;2022-07-29T09:02:37;101058.97;;;14.93;82.17
70009;BME280;59542;37.950;-122.338;2022-07-29T09:05:05;101050.16;;;14.86;82.59
70009;BME280;59542;37.950;-122.338;2022-07-29T09:07:32;101053.66;;;14.86;82.01
70009;BME280;59542;37.950;-122.338;2022-07-29T09:09:59;101050.53;;;14.89;82.16
70009;BME280;59542;37.950;-122.338;2022-07-29T09:12:26;101056.22;;;14.81;82.37
70009;BME280;59542;37.950;-122.338;2022-07-29T09:14:52;101044.53;;;14.87;82.45
70009;BME280;59542;37.950;-122.338;2022-07-29T09:17:39;101054.72;;;14.85;82.41
70009;BME280;59542;37.950;-122.338;2022-07-29T09:20:11;101049.63;;;14.95;81.74
70009;BME280;59542;37.950;-122.338;2022-07-29T09:22:37;101048.47;;;14.73;82.48
70009;BME280;59542;37.950;-122.338;2022-07-29T09:25:04;101042.84;;;14.74;82.55
70009;BME280;59542;37.950;-122.338;2022-07-29T09:27:30;101052.03;;;14.85;82.00
70009;BME280;59542;37.950;-122.338;2022-07-29T09:32:27;101041.94;;;14.81;82.83
70009;BME280;59542;37.950;-122.338;2022-07-29T09:35:22;101040.53;;;14.78;82.87
70009;BME280;59542;37.950;-122.338;2022-07-29T09:37:49;101042.75;;;14.81;82.01
70009;BME280;59542;37.950;-122.338;2022-07-29T09:40:18;101029.91;;;14.83;82.07
70009;BME280;59542;37.950;-122.338;2022-07-29T09:42:45;101033.28;;;14.78;82.66
70009;BME280;59542;37.950;-122.338;2022-07-29T09:45:12;101044.16;;;14.72;83.06
70009;BME280;59542;37.950;-122.338;2022-07-29T09:50:11;101037.22;;;14.76;82.89
70009;BME280;59542;37.950;-122.338;2022-07-29T09:52:49;101030.72;;;14.84;83.04
70009;BME280;59542;37.950;-122.338;2022-07-29T09:55:17;101034.41;;;14.71;83.81
70009;BME280;59542;37.950;-122.338;2022-07-29T09:57:44;101032.84;;;14.63;83.62
70009;BME280;59542;37.950;-122.338;2022-07-29T10:00:18;101042.56;;;14.64;83.08
70009;BME280;59542;37.950;-122.338;2022-07-29T10:02:46;101043.78;;;14.68;83.08
70009;BME280;59542;37.950;-122.338;2022-07-29T10:05:24;101048.47;;;14.73;83.11
70009;BME280;59542;37.950;-122.338;2022-07-29T10:07:55;101043.44;;;14.76;82.85
70009;BME280;59542;37.950;-122.338;2022-07-29T10:10:33;101048.16;;;14.81;82.96
70009;BME280;59542;37.950;-122.338;2022-07-29T10:13:04;101046.13;;;14.76;83.08
70009;BME280;59542;37.950;-122.338;2022-07-29T10:15:33;101040.69;;;14.65;83.64
70009;BME280;59542;37.950;-122.338;2022-07-29T10:18:03;101038.75;;;14.72;83.19
70009;BME280;59542;37.950;-122.338;2022-07-29T10:20:29;101043.69;;;14.75;83.36
70009;BME280;59542;37.950;-122.338;2022-07-29T10:22:56;101043.69;;;14.75;83.49
70009;BME280;59542;37.950;-122.338;2022-07-29T10:25:23;101036.69;;;14.86;82.89
70009;BME280;59542;37.950;-122.338;2022-07-29T10:27:51;101046.66;;;14.85;82.76
70009;BME280;59542;37.950;-122.338;2022-07-29T10:30:18;101047.09;;;14.82;nan
70009;BME280;59542;37.950;-122.338;2022-07-29T10:43:46;101045.81;;;14.55;85.53
70009;BME280;59542;37.950;-122.338;2022-07-29T10:46:13;101051.03;;;14.68;84.71
70009;BME280;59542;37.950;-122.338;2022-07-29T10:49:05;101042.94;;;14.68;84.40
70009;BME280;59542;37.950;-122.338;2022-07-29T10:51:54;101047.53;;;14.67;85.23
70009;BME280;59542;37.950;-122.338;2022-07-29T10:54:48;101059.41;;;14.60;85.47
70009;BME280;59542;37.950;-122.338;2022-07-29T10:57:27;101056.88;;;14.65;85.09
70009;BME280;59542;37.950;-122.338;2022-07-29T11:05:08;101066.31;;;14.56;84.99
70009;BME280;59542;37.950;-122.338;2022-07-29T11:07:36;101052.84;;;14.56;84.50
70009;BME280;59542;37.950;-122.338;2022-07-29T11:15:11;101057.75;;;14.77;84.80
70009;BME280;59542;37.950;-122.338;2022-07-29T11:23:27;101058.06;;;14.69;84.79
70009;BME280;59542;37.950;-122.338;2022-07-29T11:26:14;101052.22;;;14.72;84.18
70009;BME280;59542;37.950;-122.338;2022-07-29T11:31:41;101046.31;;;14.93;82.72
70009;BME280;59542;37.950;-122.338;2022-07-29T11:34:22;101038.81;;;14.84;82.85
70009;BME280;59542;37.950;-122.338;2022-07-29T11:40:07;101051.84;;;14.98;82.21
70009;BME280;59542;37.950;-122.338;2022-07-29T11:42:37;101051.69;;;14.93;82.26
70009;BME280;59542;37.950;-122.338;2022-07-29T11:47:51;101051.81;;;14.87;82.29
70009;BME280;59542;37.950;-122.338;2022-07-29T11:50:30;101053.41;;;14.76;83.10
70009;BME280;59542;37.950;-122.338;2022-07-29T11:52:56;101045.50;;;14.93;82.91
70009;BME280;59542;37.950;-122.338;2022-07-29T11:55:24;101051.34;;;14.90;82.60
70009;BME280;59542;37.950;-122.338;2022-07-29T11:57:55;101053.72;;;14.98;82.33
70009;BME280;59542;37.950;-122.338;2022-07-29T12:00:27;101055.16;;;15.12;81.07
70009;BME280;59542;37.950;-122.338;2022-07-29T12:02:55;101056.81;;;15.13;81.18
70009;BME280;59542;37.950;-122.338;2022-07-29T12:05:25;101054.78;;;15.09;80.39
70009;BME280;59542;37.950;-122.338;2022-07-29T12:08:04;101055.00;;;14.95;81.02
70009;BME280;59542;37.950;-122.338;2022-07-29T12:10:31;101053.25;;;15.01;81.23
70009;BME280;59542;37.950;-122.338;2022-07-29T12:12:57;101047.66;;;15.14;81.05
70009;BME280;59542;37.950;-122.338;2022-07-29T12:15:23;101041.88;;;14.99;81.54
70009;BME280;59542;37.950;-122.338;2022-07-29T12:17:52;101043.13;;;14.85;82.50
70009;BME280;59542;37.950;-122.338;2022-07-29T12:20:23;101041.94;;;14.81;82.88
70009;BME280;59542;37.950;-122.338;2022-07-29T12:22:50;101044.22;;;14.65;83.79
70009;BME280;59542;37.950;-122.338;2022-07-29T12:25:20;101041.34;;;14.78;83.09
70009;BME280;59542;37.950;-122.338;2022-07-29T12:27:47;101036.22;;;14.77;82.80
70009;BME280;59542;37.950;-122.338;2022-07-29T12:30:23;101039.56;;;14.72;82.48
70009;BME280;59542;37.950;-122.338;2022-07-29T12:32:59;101030.25;;;14.57;83.04
70009;BME280;59542;37.950;-122.338;2022-07-29T12:35:25;101026.38;;;14.52;83.34
70009;BME280;59542;37.950;-122.338;2022-07-29T12:37:52;101035.94;;;14.48;83.85
70009;BME280;59542;37.950;-122.338;2022-07-29T12:40:18;101034.91;;;14.49;84.23
70009;BME280;59542;37.950;-122.338;2022-07-29T12:43:08;101025.69;;;14.57;83.75
70009;BME280;59542;37.950;-122.338;2022-07-29T12:45:39;101030.69;;;14.72;82.82
70009;BME280;59542;37.950;-122.338;2022-07-29T12:48:06;101036.22;;;14.77;82.77
70009;BME280;59542;37.950;-122.338;2022-07-29T12:50:50;101033.81;;;14.69;82.77
70009;BME280;59542;37.950;-122.338;2022-07-29T12:53:17;101031.31;;;14.56;82.97
70009;BME280;59542;37.950;-122.338;2022-07-29T12:55:47;101041.38;;;14.60;83.20
70009;BME280;59542;37.950;-122.338;2022-07-29T12:58:33;101046.75;;;14.60;83.02
70009;BME280;59542;37.950;-122.338;2022-07-29T13:04:01;101049.13;;;14.57;83.66
70009;BME280;59542;37.950;-122.338;2022-07-29T13:11:29;101053.72;;;14.68;84.14
70009;BME280;59542;37.950;-122.338;2022-07-29T13:13:56;101051.75;;;14.75;83.83
70009;BME280;59542;37.950;-122.338;2022-07-29T13:16:22;101050.31;;;14.61;83.92
70009;BME280;59542;37.950;-122.338;2022-07-29T13:18:48;101055.13;;;14.70;83.53
70009;BME280;59542;37.950;-122.338;2022-07-29T13:21:28;101054.53;;;14.68;83.82
70009;BME280;59542;37.950;-122.338;2022-07-29T13:23:54;101050.97;;;14.56;84.18
70009;BME280;59542;37.950;-122.338;2022-07-29T13:26:20;101052.38;;;14.59;84.01
70009;BME280;59542;37.950;-122.338;2022-07-29T13:28:47;101057.78;;;14.59;84.42
70009;BME280;59542;37.950;-122.338;2022-07-29T13:31:13;101060.47;;;14.59;84.46
70009;BME280;59542;37.950;-122.338;2022-07-29T13:33:39;101063.84;;;14.54;84.65
70009;BME280;59542;37.950;-122.338;2022-07-29T13:36:06;101064.91;;;14.53;83.98